createdAt,value
2022-11-30T00:00:57.496Z,0.00
2022-11-30T00:01:57.530Z,0.00
2022-11-30T00:02:57.568Z,0.00
2022-11-30T00:03:58.455Z,0.00
2022-11-30T00:04:57.489Z,0.00
2022-11-30T00:05:57.413Z,0.00
2022-11-30T00:06:57.479Z,0.00
2022-11-30T00:07:57.455Z,0.00
2022-11-30T00:08:57.509Z,0.00
2022-11-30T00:09:57.434Z,0.00
2022-11-30T00:10:57.427Z,0.00
2022-11-30T00:11:57.382Z,0.00
2022-11-30T00:12:57.410Z,0.00
2022-11-30T00:13:57.378Z,0.00
2022-11-30T00:14:57.376Z,0.00
2022-11-30T00:15:57.390Z,0.00
2022-11-30T00:16:57.400Z,0.00
2022-11-30T00:17:57.381Z,0.00
2022-11-30T00:18:57.364Z,0.00
2022-11-30T00:19:57.359Z,0.00
2022-11-30T00:21:29.773Z,0.00
2022-11-30T00:21:58.100Z,0.00
2022-11-30T00:22:57.421Z,0.00
2022-11-30T00:23:57.286Z,0.00
2022-11-30T00:24:57.298Z,0.00
2022-11-30T00:25:57.262Z,0.00
2022-11-30T00:26:57.292Z,0.00
2022-11-30T00:27:57.259Z,0.00
2022-11-30T00:28:57.288Z,0.00
2022-11-30T00:29:57.382Z,0.00
2022-11-30T00:30:57.282Z,0.00
2022-11-30T00:31:57.217Z,0.00
2022-11-30T00:32:57.231Z,0.00
2022-11-30T00:33:57.199Z,0.00
2022-11-30T00:34:58.192Z,0.00
2022-11-30T00:35:57.207Z,0.00
2022-11-30T00:36:57.192Z,0.00
2022-11-30T00:37:57.211Z,0.00
2022-11-30T00:38:57.181Z,0.00
2022-11-30T00:39:57.167Z,0.00
2022-11-30T00:40:57.145Z,0.00
2022-11-30T00:41:57.158Z,0.00
2022-11-30T00:42:57.172Z,0.00
2022-11-30T00:43:57.141Z,0.00
2022-11-30T00:44:57.168Z,0.00
2022-11-30T00:45:57.267Z,0.00
2022-11-30T00:46:57.127Z,0.00
2022-11-30T00:47:57.097Z,0.00
2022-11-30T00:48:57.142Z,0.00
2022-11-30T00:49:57.141Z,0.00
2022-11-30T00:50:57.149Z,0.00
2022-11-30T00:51:57.103Z,0.00
2022-11-30T00:52:57.056Z,0.00
2022-11-30T00:53:57.052Z,0.00
2022-11-30T00:54:57.057Z,0.00
2022-11-30T00:55:57.068Z,0.00
2022-11-30T00:56:57.041Z,0.00
2022-11-30T00:57:57.670Z,0.00
2022-11-30T00:58:57.024Z,0.00
2022-11-30T00:59:57.020Z,0.00
2022-11-30T01:00:57.067Z,0.00
2022-11-30T01:01:57.018Z,0.00
2022-11-30T01:02:56.995Z,0.00
2022-11-30T01:03:56.993Z,0.00
2022-11-30T01:04:57.030Z,0.00
2022-11-30T01:05:57.025Z,0.00
2022-11-30T01:06:56.979Z,0.00
2022-11-30T01:07:56.978Z,0.00
2022-11-30T01:08:56.925Z,0.00
2022-11-30T01:09:56.994Z,0.00
2022-11-30T01:10:56.940Z,0.00
2022-11-30T01:11:56.962Z,0.00
2022-11-30T01:12:56.927Z,0.00
2022-11-30T01:13:56.892Z,0.00
2022-11-30T01:14:56.901Z,0.00
2022-11-30T01:15:56.965Z,0.00
2022-11-30T01:16:56.929Z,0.00
2022-11-30T01:17:56.874Z,0.00
2022-11-30T01:18:56.875Z,0.00
2022-11-30T01:19:56.852Z,0.00
2022-11-30T01:20:56.825Z,0.00
2022-11-30T01:21:56.851Z,0.00
2022-11-30T01:22:56.935Z,0.00
2022-11-30T01:23:56.870Z,0.00
2022-11-30T01:24:57.850Z,0.00
2022-11-30T01:25:56.811Z,0.00
2022-11-30T01:26:56.829Z,0.00
2022-11-30T01:27:56.804Z,0.00
2022-11-30T01:28:56.840Z,0.00
2022-11-30T01:29:56.785Z,0.00
2022-11-30T01:30:56.811Z,0.00
2022-11-30T01:31:56.773Z,0.00
2022-11-30T01:32:56.789Z,0.00
2022-11-30T01:33:56.775Z,0.00
2022-11-30T01:34:56.784Z,0.00
2022-11-30T01:35:56.777Z,0.00
2022-11-30T01:36:56.713Z,0.00
2022-11-30T01:37:56.743Z,0.00
2022-11-30T01:38:56.752Z,0.00
2022-11-30T01:39:56.706Z,0.00
2022-11-30T01:40:56.689Z,0.00
2022-11-30T01:41:56.744Z,0.00
2022-11-30T01:42:56.768Z,0.00
2022-11-30T01:43:56.665Z,0.00
2022-11-30T01:44:56.698Z,0.00
2022-11-30T01:45:56.725Z,0.00
2022-11-30T01:46:56.663Z,0.00
2022-11-30T01:47:56.649Z,0.00
2022-11-30T01:48:56.714Z,0.00
2022-11-30T01:49:56.643Z,0.00
2022-11-30T01:50:56.632Z,0.00
2022-11-30T01:51:56.624Z,0.00
2022-11-30T01:52:56.626Z,0.00
2022-11-30T01:53:56.615Z,0.00
2022-11-30T01:54:56.602Z,0.00
2022-11-30T01:55:56.606Z,0.00
2022-11-30T01:56:56.599Z,0.00
2022-11-30T01:57:56.586Z,0.00
2022-11-30T01:58:56.563Z,0.00
2022-11-30T01:59:56.595Z,0.00
2022-11-30T02:00:56.600Z,0.00
2022-11-30T02:01:56.535Z,0.00
2022-11-30T02:02:56.685Z,0.00
2022-11-30T02:03:56.636Z,0.00
2022-11-30T02:04:56.517Z,0.00
2022-11-30T02:05:56.506Z,0.00
2022-11-30T02:06:56.538Z,0.00
2022-11-30T02:07:56.731Z,0.00
2022-11-30T02:08:56.500Z,0.00
2022-11-30T02:09:56.499Z,0.00
2022-11-30T02:10:56.616Z,0.00
2022-11-30T02:11:56.458Z,0.00
2022-11-30T02:12:56.501Z,0.00
2022-11-30T02:13:56.533Z,0.00
2022-11-30T02:14:56.447Z,0.00
2022-11-30T02:15:56.466Z,0.00
2022-11-30T02:16:56.533Z,0.00
2022-11-30T02:17:56.457Z,0.00
2022-11-30T02:18:56.424Z,0.00
2022-11-30T02:19:56.422Z,0.00
2022-11-30T02:20:56.467Z,0.00
2022-11-30T02:21:56.439Z,0.00
2022-11-30T02:22:56.499Z,0.00
2022-11-30T02:23:56.391Z,0.00
2022-11-30T02:24:56.385Z,0.00
2022-11-30T02:25:56.428Z,0.00
2022-11-30T02:26:56.441Z,0.00
2022-11-30T02:27:56.824Z,0.00
2022-11-30T02:28:56.459Z,0.00
2022-11-30T02:29:56.391Z,0.00
2022-11-30T02:30:56.405Z,0.00
2022-11-30T02:31:56.313Z,0.00
2022-11-30T02:32:56.365Z,0.00
2022-11-30T02:33:56.296Z,0.00
2022-11-30T02:34:57.095Z,0.00
2022-11-30T02:35:56.335Z,0.00
2022-11-30T02:37:28.178Z,0.00
2022-11-30T02:37:56.283Z,0.00
2022-11-30T02:38:56.268Z,0.00
2022-11-30T02:39:56.223Z,0.00
2022-11-30T02:40:57.248Z,0.00
2022-11-30T02:41:56.268Z,0.00
2022-11-30T02:42:56.267Z,0.00
2022-11-30T02:43:56.233Z,0.00
2022-11-30T02:44:56.218Z,0.00
2022-11-30T02:45:56.293Z,0.00
2022-11-30T02:46:56.197Z,0.00
2022-11-30T02:47:56.187Z,0.00
2022-11-30T02:48:56.180Z,0.00
2022-11-30T02:49:56.175Z,0.00
2022-11-30T02:50:56.164Z,0.00
2022-11-30T02:51:56.175Z,0.00
2022-11-30T02:52:56.336Z,0.00
2022-11-30T02:53:56.168Z,0.00
2022-11-30T02:54:56.215Z,0.00
2022-11-30T02:55:56.144Z,0.00
2022-11-30T02:56:56.183Z,0.00
2022-11-30T02:57:56.141Z,0.00
2022-11-30T02:58:56.110Z,0.00
2022-11-30T02:59:56.129Z,0.00
2022-11-30T03:00:56.091Z,0.00
2022-11-30T03:01:56.175Z,0.00
2022-11-30T03:02:56.139Z,0.00
2022-11-30T03:03:56.073Z,0.00
2022-11-30T03:04:56.077Z,0.00
2022-11-30T03:05:56.064Z,0.00
2022-11-30T03:06:56.058Z,0.00
2022-11-30T03:07:56.136Z,0.00
2022-11-30T03:08:56.015Z,0.00
2022-11-30T03:09:56.030Z,0.00
2022-11-30T03:10:56.024Z,0.00
2022-11-30T03:11:56.025Z,0.00
2022-11-30T03:12:55.983Z,0.00
2022-11-30T03:13:56.001Z,0.00
2022-11-30T03:14:56.000Z,0.00
2022-11-30T03:15:56.069Z,0.00
2022-11-30T03:16:55.973Z,0.00
2022-11-30T03:17:55.985Z,0.00
2022-11-30T03:18:55.957Z,0.00
2022-11-30T03:19:55.928Z,0.00
2022-11-30T03:20:55.943Z,0.00
2022-11-30T03:21:55.954Z,0.00
2022-11-30T03:22:55.933Z,0.00
2022-11-30T03:23:55.909Z,0.00
2022-11-30T03:24:55.898Z,0.00
2022-11-30T03:25:55.907Z,0.00
2022-11-30T03:26:55.876Z,0.00
2022-11-30T03:27:55.893Z,0.00
2022-11-30T03:28:55.899Z,0.00
2022-11-30T03:29:55.859Z,0.00
2022-11-30T03:30:55.890Z,0.00
2022-11-30T03:31:55.851Z,0.00
2022-11-30T03:32:55.855Z,0.00
2022-11-30T03:33:55.826Z,0.00
2022-11-30T03:34:55.841Z,0.00
2022-11-30T03:35:55.820Z,0.00
2022-11-30T03:36:55.836Z,0.00
2022-11-30T03:37:55.832Z,0.00
2022-11-30T03:38:55.798Z,0.00
2022-11-30T03:39:58.373Z,0.00
2022-11-30T03:40:56.788Z,0.00
2022-11-30T03:41:55.795Z,0.00
2022-11-30T03:42:55.753Z,0.00
2022-11-30T03:43:55.769Z,0.00
2022-11-30T03:44:55.758Z,0.00
2022-11-30T03:45:55.759Z,0.00
2022-11-30T03:46:55.738Z,0.00
2022-11-30T03:47:55.748Z,0.00
2022-11-30T04:03:17.765Z,0.00
2022-11-30T04:04:17.675Z,0.00
2022-11-30T04:05:17.667Z,0.00
2022-11-30T04:06:17.665Z,0.00
2022-11-30T04:07:17.803Z,0.00
2022-11-30T04:08:18.821Z,0.00
2022-11-30T04:09:18.775Z,0.00
2022-11-30T04:10:18.760Z,0.00
2022-11-30T04:11:18.755Z,0.00
2022-11-30T04:12:18.822Z,0.00
2022-11-30T04:13:18.761Z,0.00
2022-11-30T04:14:18.735Z,0.00
2022-11-30T04:15:18.753Z,0.00
2022-11-30T04:16:18.751Z,0.00
2022-11-30T04:17:18.733Z,0.00
2022-11-30T04:18:18.727Z,0.00
2022-11-30T04:19:18.701Z,0.00
2022-11-30T04:20:18.702Z,0.00
2022-11-30T04:21:18.726Z,0.00
2022-11-30T04:22:18.799Z,0.00
2022-11-30T04:23:18.692Z,0.00
2022-11-30T04:24:18.672Z,0.00
2022-11-30T04:25:18.681Z,0.00
2022-11-30T04:26:18.663Z,0.00
2022-11-30T04:27:18.626Z,0.00
2022-11-30T04:28:18.651Z,0.00
2022-11-30T04:29:18.604Z,0.00
2022-11-30T04:30:18.623Z,0.00
2022-11-30T04:31:18.630Z,0.00
2022-11-30T04:32:18.588Z,0.00
2022-11-30T04:33:18.569Z,0.00
2022-11-30T04:34:18.569Z,0.00
2022-11-30T04:35:18.603Z,0.00
2022-11-30T04:36:18.561Z,0.00
2022-11-30T04:37:18.583Z,0.00
2022-11-30T04:38:18.595Z,0.00
2022-11-30T04:39:18.550Z,0.00
2022-11-30T04:40:18.590Z,0.00
2022-11-30T04:41:18.511Z,0.00
2022-11-30T04:42:18.524Z,0.00
2022-11-30T04:43:18.526Z,0.00
2022-11-30T04:44:18.489Z,0.00
2022-11-30T04:45:18.558Z,0.00
2022-11-30T04:46:18.585Z,0.00
2022-11-30T04:47:18.479Z,0.00
2022-11-30T04:48:18.463Z,0.00
2022-11-30T04:49:18.467Z,0.00
2022-11-30T04:50:18.488Z,0.00
2022-11-30T04:51:18.487Z,0.00
2022-11-30T04:52:18.435Z,0.00
2022-11-30T04:53:18.445Z,0.00
2022-11-30T04:54:18.438Z,0.00
2022-11-30T04:55:18.479Z,0.00
2022-11-30T04:56:18.410Z,0.00
2022-11-30T04:57:18.401Z,0.00
2022-11-30T04:58:19.335Z,0.00
2022-11-30T04:59:18.408Z,0.00
2022-11-30T05:00:18.348Z,0.00
2022-11-30T05:01:18.452Z,0.00
2022-11-30T05:02:18.337Z,0.00
2022-11-30T05:03:18.331Z,0.00
2022-11-30T05:04:18.388Z,0.00
2022-11-30T05:05:18.336Z,0.00
2022-11-30T05:06:18.323Z,0.00
2022-11-30T05:07:18.377Z,0.00
2022-11-30T05:08:18.368Z,0.00
2022-11-30T05:09:18.447Z,0.00
2022-11-30T05:10:18.310Z,0.00
2022-11-30T05:11:18.332Z,0.00
2022-11-30T05:12:18.282Z,0.00
2022-11-30T05:13:18.244Z,0.00
2022-11-30T05:14:18.281Z,0.00
2022-11-30T05:15:18.264Z,0.00
2022-11-30T05:16:18.332Z,0.00
2022-11-30T05:17:18.221Z,0.00
2022-11-30T05:18:18.227Z,0.00
2022-11-30T05:19:18.306Z,0.00
2022-11-30T05:20:18.305Z,0.00
2022-11-30T05:21:18.230Z,0.00
2022-11-30T05:22:18.195Z,0.00
2022-11-30T05:23:18.238Z,0.00
2022-11-30T05:24:18.188Z,0.00
2022-11-30T05:25:18.184Z,0.00
2022-11-30T05:26:18.175Z,0.00
2022-11-30T05:27:22.555Z,0.00
2022-11-30T05:28:19.143Z,0.00
2022-11-30T05:29:18.118Z,0.00
2022-11-30T05:30:18.149Z,0.00
2022-11-30T05:31:18.196Z,0.00
2022-11-30T05:32:18.127Z,0.00
2022-11-30T05:33:18.144Z,0.00
2022-11-30T05:34:18.106Z,0.00
2022-11-30T05:35:18.074Z,0.00
2022-11-30T05:36:18.107Z,0.00
2022-11-30T05:37:18.127Z,0.00
2022-11-30T05:38:18.064Z,0.00
2022-11-30T05:39:18.054Z,0.00
2022-11-30T05:40:18.069Z,0.00
2022-11-30T05:41:18.093Z,0.00
2022-11-30T05:42:18.141Z,0.00
2022-11-30T05:43:18.029Z,0.00
2022-11-30T05:44:18.062Z,0.00
2022-11-30T05:45:18.098Z,0.00
2022-11-30T05:46:18.076Z,0.00
2022-11-30T05:47:18.085Z,0.00
2022-11-30T05:48:17.987Z,0.00
2022-11-30T05:49:17.982Z,0.00
2022-11-30T05:50:17.986Z,0.00
2022-11-30T05:51:18.043Z,0.00
2022-11-30T05:52:17.970Z,0.00
2022-11-30T05:53:17.951Z,0.00
2022-11-30T05:54:17.995Z,0.00
2022-11-30T05:55:18.038Z,0.00
2022-11-30T05:56:17.984Z,0.00
2022-11-30T05:57:17.933Z,0.00
2022-11-30T05:58:17.940Z,0.00
2022-11-30T05:59:17.951Z,0.00
2022-11-30T06:00:17.935Z,0.00
2022-11-30T06:01:17.896Z,0.00
2022-11-30T06:02:18.053Z,0.00
2022-11-30T06:03:17.984Z,0.00
2022-11-30T06:04:17.883Z,0.00
2022-11-30T06:05:17.867Z,0.00
2022-11-30T06:06:17.864Z,0.00
2022-11-30T06:07:17.866Z,0.00
2022-11-30T06:08:17.852Z,0.00
2022-11-30T06:09:17.830Z,0.00
2022-11-30T06:10:18.867Z,0.00
2022-11-30T06:11:17.816Z,0.00
2022-11-30T06:12:17.822Z,0.00
2022-11-30T06:13:17.814Z,0.00
2022-11-30T06:14:17.815Z,0.00
2022-11-30T06:15:17.821Z,0.00
2022-11-30T06:16:17.820Z,0.00
2022-11-30T06:17:17.782Z,0.00
2022-11-30T06:18:17.743Z,0.00
2022-11-30T06:19:17.747Z,0.00
2022-11-30T06:20:17.803Z,0.00
2022-11-30T06:21:23.913Z,0.00
2022-11-30T06:22:19.747Z,0.00
2022-11-30T06:23:17.716Z,0.00
2022-11-30T06:24:17.773Z,0.00
2022-11-30T06:25:17.713Z,0.00
2022-11-30T06:26:17.702Z,0.00
2022-11-30T06:27:17.697Z,0.00
2022-11-30T06:28:17.675Z,0.00
2022-11-30T06:29:17.676Z,0.00
2022-11-30T06:30:17.684Z,0.00
2022-11-30T06:31:17.689Z,0.00
2022-11-30T06:32:17.690Z,0.00
2022-11-30T06:33:17.649Z,0.00
2022-11-30T06:34:17.716Z,0.00
2022-11-30T06:35:17.668Z,4.00
2022-11-30T06:36:17.621Z,4.00
2022-11-30T06:37:17.626Z,4.00
2022-11-30T06:38:17.594Z,4.00
2022-11-30T06:39:31.477Z,4.00
2022-11-30T06:40:18.619Z,4.00
2022-11-30T06:41:17.573Z,4.00
2022-11-30T06:42:17.641Z,4.00
2022-11-30T06:43:17.557Z,4.00
2022-11-30T06:44:17.555Z,8.00
2022-11-30T06:45:17.541Z,4.00
2022-11-30T06:46:17.648Z,8.00
2022-11-30T06:47:17.540Z,8.00
2022-11-30T06:48:17.542Z,8.00
2022-11-30T06:49:17.513Z,12.00
2022-11-30T06:50:17.516Z,12.00
2022-11-30T06:51:17.507Z,16.00
2022-11-30T06:52:17.499Z,16.00
2022-11-30T06:53:18.423Z,16.00
2022-11-30T06:54:17.534Z,16.00
2022-11-30T06:55:17.479Z,16.00
2022-11-30T06:56:17.467Z,20.00
2022-11-30T06:57:17.480Z,20.00
2022-11-30T06:58:17.461Z,20.00
2022-11-30T06:59:17.461Z,24.00
2022-11-30T07:00:17.430Z,28.00
2022-11-30T07:01:17.508Z,28.00
2022-11-30T07:02:18.473Z,32.00
2022-11-30T07:03:18.437Z,36.00
2022-11-30T07:04:17.443Z,36.00
2022-11-30T07:05:17.392Z,40.00
2022-11-30T07:06:17.396Z,44.00
2022-11-30T07:07:17.407Z,48.00
2022-11-30T07:08:17.379Z,48.00
2022-11-30T07:09:17.583Z,52.00
2022-11-30T07:10:20.210Z,56.00
2022-11-30T07:11:18.412Z,60.00
2022-11-30T07:12:17.423Z,60.00
2022-11-30T07:13:17.370Z,64.00
2022-11-30T07:14:17.433Z,64.00
2022-11-30T07:15:17.382Z,68.00
2022-11-30T07:16:17.327Z,68.00
2022-11-30T07:17:18.318Z,72.00
2022-11-30T07:18:17.383Z,72.00
2022-11-30T07:19:17.279Z,76.00
2022-11-30T07:20:17.288Z,84.00
2022-11-30T07:21:17.330Z,88.00
2022-11-30T07:22:17.333Z,92.00
2022-11-30T07:23:17.312Z,96.00
2022-11-30T07:24:17.312Z,104.00
2022-11-30T07:25:17.522Z,108.00
2022-11-30T07:26:17.253Z,120.00
2022-11-30T07:27:17.229Z,136.00
2022-11-30T07:28:17.238Z,136.00
2022-11-30T07:29:17.246Z,152.00
2022-11-30T07:30:17.190Z,160.00
2022-11-30T07:31:17.378Z,172.00
2022-11-30T07:32:17.534Z,180.00
2022-11-30T07:33:17.200Z,180.00
2022-11-30T07:34:17.243Z,180.00
2022-11-30T07:35:17.175Z,184.00
2022-11-30T07:36:17.172Z,184.00
2022-11-30T07:37:17.210Z,184.00
2022-11-30T07:38:17.224Z,188.00
2022-11-30T07:39:17.205Z,196.00
2022-11-30T07:40:17.149Z,200.00
2022-11-30T07:41:17.183Z,208.00
2022-11-30T07:42:17.166Z,216.00
2022-11-30T07:43:17.134Z,220.00
2022-11-30T07:44:17.141Z,224.00
2022-11-30T07:45:17.099Z,228.00
2022-11-30T07:46:17.220Z,228.00
2022-11-30T07:47:17.113Z,232.00
2022-11-30T07:48:17.100Z,236.00
2022-11-30T07:49:17.072Z,244.00
2022-11-30T07:50:17.120Z,252.00
2022-11-30T07:51:17.053Z,264.00
2022-11-30T07:52:17.060Z,276.00
2022-11-30T07:53:17.101Z,288.00
2022-11-30T07:54:17.034Z,304.00
2022-11-30T07:55:17.013Z,320.00
2022-11-30T07:56:17.064Z,328.00
2022-11-30T07:57:17.010Z,344.00
2022-11-30T07:58:17.663Z,352.00
2022-11-30T07:59:18.060Z,360.00
2022-11-30T08:00:17.006Z,372.00
2022-11-30T08:01:17.354Z,384.00
2022-11-30T08:02:17.145Z,396.00
2022-11-30T08:03:16.973Z,404.00
2022-11-30T08:04:17.045Z,416.00
2022-11-30T08:05:16.951Z,428.00
2022-11-30T08:06:16.995Z,440.00
2022-11-30T08:07:16.979Z,456.00
2022-11-30T08:08:16.927Z,464.00
2022-11-30T08:09:20.687Z,480.00
2022-11-30T08:10:17.942Z,480.00
2022-11-30T08:11:16.927Z,480.00
2022-11-30T08:12:16.920Z,484.00
2022-11-30T08:13:16.921Z,488.00
2022-11-30T08:14:16.937Z,516.00
2022-11-30T08:15:21.209Z,508.00
2022-11-30T08:16:18.960Z,520.00
2022-11-30T08:17:16.876Z,532.00
2022-11-30T08:18:16.861Z,548.00
2022-11-30T08:19:16.867Z,564.00
2022-11-30T08:20:16.864Z,572.00
2022-11-30T08:21:16.884Z,580.00
2022-11-30T08:22:16.872Z,588.00
2022-11-30T08:23:16.875Z,592.00
2022-11-30T08:24:16.882Z,608.00
2022-11-30T08:25:16.821Z,632.00
2022-11-30T08:26:16.803Z,644.00
2022-11-30T08:27:16.806Z,668.00
2022-11-30T08:28:16.836Z,696.00
2022-11-30T08:29:16.843Z,724.00
2022-11-30T08:30:16.829Z,748.00
2022-11-30T08:31:16.835Z,764.00
2022-11-30T08:32:16.827Z,788.00
2022-11-30T08:33:16.732Z,796.00
2022-11-30T08:34:16.743Z,804.00
2022-11-30T08:35:16.753Z,812.00
2022-11-30T08:36:16.786Z,816.00
2022-11-30T08:37:49.096Z,816.00
2022-11-30T08:38:16.769Z,820.00
2022-11-30T08:39:16.792Z,824.00
2022-11-30T08:40:16.686Z,832.00
2022-11-30T08:41:16.673Z,840.00
2022-11-30T08:42:17.683Z,860.00
2022-11-30T08:43:16.707Z,876.00
2022-11-30T08:44:16.635Z,904.00
2022-11-30T08:45:16.612Z,928.00
2022-11-30T08:46:49.216Z,960.00
2022-11-30T08:47:18.723Z,984.00
2022-11-30T08:48:16.593Z,1008.00
2022-11-30T08:50:18.592Z,1040.00
2022-11-30T08:51:16.588Z,1064.00
2022-11-30T08:52:18.148Z,1088.00
2022-11-30T08:53:17.564Z,1112.00
2022-11-30T08:54:16.590Z,1144.00
2022-11-30T08:55:16.566Z,1164.00
2022-11-30T08:56:16.543Z,1180.00
2022-11-30T08:57:16.609Z,1188.00
2022-11-30T08:58:16.540Z,1192.00
2022-11-30T08:59:16.572Z,1188.00
2022-11-30T09:00:16.583Z,1192.00
2022-11-30T09:01:16.574Z,1196.00
2022-11-30T09:02:16.589Z,1212.00
2022-11-30T09:03:16.527Z,1220.00
2022-11-30T09:04:16.540Z,1240.00
2022-11-30T09:05:16.491Z,1268.00
2022-11-30T09:06:16.508Z,1308.00
2022-11-30T09:07:16.451Z,1364.00
2022-11-30T09:08:16.452Z,1420.00
2022-11-30T09:09:16.486Z,1500.00
2022-11-30T09:10:16.439Z,1588.00
2022-11-30T09:11:16.462Z,1680.00
2022-11-30T09:12:16.417Z,1768.00
2022-11-30T09:13:16.464Z,1860.00
2022-11-30T09:14:16.415Z,1964.00
2022-11-30T09:15:16.456Z,2072.00
2022-11-30T09:16:16.465Z,2176.00
2022-11-30T09:17:16.375Z,2244.00
2022-11-30T09:18:16.450Z,2268.00
2022-11-30T09:19:16.406Z,2320.00
2022-11-30T09:20:16.403Z,2292.00
2022-11-30T09:21:16.395Z,2304.00
2022-11-30T09:22:16.362Z,2348.00
2022-11-30T09:23:16.351Z,2332.00
2022-11-30T09:24:16.330Z,2328.00
2022-11-30T09:25:16.342Z,2308.00
2022-11-30T09:26:16.310Z,2264.00
2022-11-30T09:27:16.328Z,2224.00
2022-11-30T09:28:16.315Z,2204.00
2022-11-30T09:29:16.297Z,2184.00
2022-11-30T09:30:16.335Z,2176.00
2022-11-30T09:31:16.327Z,2168.00
2022-11-30T09:32:16.288Z,2168.00
2022-11-30T09:33:17.034Z,2152.00
2022-11-30T09:34:16.278Z,2124.00
2022-11-30T09:35:16.282Z,2080.00
2022-11-30T09:36:16.237Z,2004.00
2022-11-30T09:37:16.547Z,1892.00
2022-11-30T09:38:16.272Z,1768.00
2022-11-30T09:39:16.256Z,1656.00
2022-11-30T09:40:16.235Z,1576.00
2022-11-30T09:41:16.363Z,1524.00
2022-11-30T09:42:16.205Z,1512.00
2022-11-30T09:43:16.197Z,1544.00
2022-11-30T09:44:16.203Z,1596.00
2022-11-30T09:45:16.226Z,1652.00
2022-11-30T09:46:16.314Z,1696.00
2022-11-30T09:47:16.206Z,1740.00
2022-11-30T09:48:16.195Z,1784.00
2022-11-30T09:49:16.156Z,1828.00
2022-11-30T09:50:16.160Z,1896.00
2022-11-30T09:51:16.151Z,1972.00
2022-11-30T09:52:16.110Z,2096.00
2022-11-30T09:53:16.164Z,2280.00
2022-11-30T09:54:16.175Z,2500.00
2022-11-30T09:55:16.152Z,2756.00
2022-11-30T09:56:16.124Z,2992.00
2022-11-30T09:57:16.144Z,3160.00
2022-11-30T09:58:16.174Z,3248.00
2022-11-30T09:59:16.144Z,3264.00
2022-11-30T10:00:16.073Z,3232.00
2022-11-30T10:01:16.092Z,3168.00
2022-11-30T10:02:16.202Z,3128.00
2022-11-30T10:03:16.216Z,3076.00
2022-11-30T10:04:16.089Z,3016.00
2022-11-30T10:05:16.012Z,3004.00
2022-11-30T10:06:16.011Z,2988.00
2022-11-30T10:07:16.037Z,2940.00
2022-11-30T10:08:18.109Z,2924.00
2022-11-30T10:09:17.051Z,2944.00
2022-11-30T10:10:31.877Z,2980.00
2022-11-30T10:11:17.980Z,2992.00
2022-11-30T10:12:16.009Z,2984.00
2022-11-30T10:13:16.043Z,3028.00
2022-11-30T10:14:16.005Z,3144.00
2022-11-30T10:15:15.972Z,3232.00
2022-11-30T10:16:16.010Z,3308.00
2022-11-30T10:17:15.921Z,3304.00
2022-11-30T10:18:15.925Z,3276.00
2022-11-30T10:19:15.917Z,3216.00
2022-11-30T10:20:15.969Z,3160.00
2022-11-30T10:21:15.908Z,3140.00
2022-11-30T10:22:15.918Z,3188.00
2022-11-30T10:23:15.906Z,3264.00
2022-11-30T10:24:15.878Z,3372.00
2022-11-30T10:25:15.870Z,3428.00
2022-11-30T10:26:15.878Z,3436.00
2022-11-30T10:27:15.915Z,3408.00
2022-11-30T10:28:45.167Z,3340.00
2022-11-30T10:29:17.859Z,3224.00
2022-11-30T10:30:15.865Z,3104.00
2022-11-30T10:31:15.874Z,3012.00
2022-11-30T10:32:15.841Z,2984.00
2022-11-30T10:33:15.806Z,3032.00
2022-11-30T10:34:15.794Z,3112.00
2022-11-30T10:35:15.783Z,3176.00
2022-11-30T10:36:15.815Z,3184.00
2022-11-30T10:37:15.826Z,3136.00
2022-11-30T10:38:15.780Z,3072.00
2022-11-30T10:39:15.822Z,3004.00
2022-11-30T10:40:15.794Z,2932.00
2022-11-30T10:41:15.725Z,2876.00
2022-11-30T10:42:15.768Z,2840.00
2022-11-30T10:43:15.743Z,2844.00
2022-11-30T10:44:15.727Z,2860.00
2022-11-30T10:45:15.819Z,2852.00
2022-11-30T10:46:17.207Z,2848.00
2022-11-30T10:47:16.679Z,2816.00
2022-11-30T10:48:15.868Z,2756.00
2022-11-30T10:49:15.735Z,2708.00
2022-11-30T10:50:15.672Z,2676.00
2022-11-30T10:51:15.683Z,2636.00
2022-11-30T10:52:15.697Z,2612.00
2022-11-30T10:53:15.653Z,2580.00
2022-11-30T10:54:15.654Z,2608.00
2022-11-30T10:55:15.795Z,2572.00
2022-11-30T10:56:15.619Z,2612.00
2022-11-30T10:57:15.607Z,2696.00
2022-11-30T10:58:15.622Z,2796.00
2022-11-30T10:59:15.589Z,2888.00
2022-11-30T11:00:15.615Z,2980.00
2022-11-30T11:01:15.597Z,3060.00
2022-11-30T11:02:15.613Z,3104.00
2022-11-30T11:03:15.598Z,3132.00
2022-11-30T11:04:15.617Z,3096.00
2022-11-30T11:05:15.616Z,3036.00
2022-11-30T11:06:15.526Z,2956.00
2022-11-30T11:07:15.820Z,2864.00
2022-11-30T11:08:15.618Z,2768.00
2022-11-30T11:09:15.588Z,2660.00
2022-11-30T11:10:15.549Z,2548.00
2022-11-30T11:11:15.509Z,2448.00
2022-11-30T11:12:15.525Z,2340.00
2022-11-30T11:13:15.484Z,2260.00
2022-11-30T11:14:15.540Z,2180.00
2022-11-30T11:15:15.555Z,2136.00
2022-11-30T11:16:15.560Z,2112.00
2022-11-30T11:17:15.456Z,2104.00
2022-11-30T11:18:15.481Z,2136.00
2022-11-30T11:19:15.497Z,2104.00
2022-11-30T11:20:15.455Z,2072.00
2022-11-30T11:21:15.431Z,2024.00
2022-11-30T11:22:15.419Z,1960.00
2022-11-30T11:23:15.445Z,1888.00
2022-11-30T11:24:15.452Z,1840.00
2022-11-30T11:25:15.442Z,1800.00
2022-11-30T11:26:15.419Z,1796.00
2022-11-30T11:27:15.421Z,1808.00
2022-11-30T11:28:15.376Z,1824.00
2022-11-30T11:29:15.435Z,1836.00
2022-11-30T11:30:15.355Z,1840.00
2022-11-30T11:31:15.533Z,1836.00
2022-11-30T11:32:15.343Z,1824.00
2022-11-30T11:33:15.338Z,1796.00
2022-11-30T11:34:15.342Z,1776.00
2022-11-30T11:35:15.352Z,1760.00
2022-11-30T11:36:15.339Z,1708.00
2022-11-30T11:37:15.320Z,1656.00
2022-11-30T11:38:15.314Z,1608.00
2022-11-30T11:39:15.297Z,1556.00
2022-11-30T11:40:15.264Z,1488.00
2022-11-30T11:41:15.327Z,1424.00
2022-11-30T11:42:17.819Z,1384.00
2022-11-30T11:43:17.287Z,1352.00
2022-11-30T11:44:15.297Z,1328.00
2022-11-30T11:45:15.243Z,1316.00
2022-11-30T11:46:15.303Z,1308.00
2022-11-30T11:47:15.232Z,1312.00
2022-11-30T11:48:15.385Z,1304.00
2022-11-30T11:49:15.206Z,1296.00
2022-11-30T11:50:15.191Z,1300.00
2022-11-30T11:51:15.212Z,1264.00
2022-11-30T11:52:15.190Z,1244.00
2022-11-30T11:53:15.260Z,1232.00
2022-11-30T11:54:15.236Z,1232.00
2022-11-30T11:55:15.142Z,1244.00
2022-11-30T11:56:15.228Z,1256.00
2022-11-30T11:57:15.142Z,1304.00
2022-11-30T11:58:15.157Z,1352.00
2022-11-30T11:59:15.120Z,1392.00
2022-11-30T12:00:16.454Z,1424.00
2022-11-30T12:01:39.441Z,1456.00
2022-11-30T12:02:17.163Z,1492.00
2022-11-30T12:03:15.159Z,1552.00
2022-11-30T12:04:15.230Z,1632.00
2022-11-30T12:05:15.181Z,1732.00
2022-11-30T12:06:15.147Z,1828.00
2022-11-30T12:07:17.975Z,1872.00
2022-11-30T12:08:16.056Z,1864.00
2022-11-30T12:09:15.076Z,1816.00
2022-11-30T12:10:49.515Z,1752.00
2022-11-30T12:11:17.068Z,1688.00
2022-11-30T12:12:16.019Z,1632.00
2022-11-30T12:13:15.012Z,1580.00
2022-11-30T12:14:15.477Z,1540.00
2022-11-30T12:15:15.016Z,1512.00
2022-11-30T12:16:15.046Z,1468.00
2022-11-30T12:17:14.991Z,1424.00
2022-11-30T12:18:22.307Z,1396.00
2022-11-30T12:19:17.503Z,1360.00
2022-11-30T12:20:14.974Z,1348.00
2022-11-30T12:21:14.933Z,1360.00
2022-11-30T12:22:14.975Z,1380.00
2022-11-30T12:23:14.983Z,1428.00
2022-11-30T12:24:14.994Z,1500.00
2022-11-30T12:25:15.970Z,1604.00
2022-11-30T12:26:14.939Z,1720.00
2022-11-30T12:27:14.992Z,1852.00
2022-11-30T12:28:15.465Z,1968.00
2022-11-30T12:29:14.974Z,2080.00
2022-11-30T12:30:14.907Z,2184.00
2022-11-30T12:31:14.931Z,2292.00
2022-11-30T12:32:14.870Z,2376.00
2022-11-30T12:33:14.901Z,2444.00
2022-11-30T12:34:14.979Z,2480.00
2022-11-30T12:35:14.896Z,2488.00
2022-11-30T12:36:14.889Z,2472.00
2022-11-30T12:37:14.868Z,2444.00
2022-11-30T12:38:14.889Z,2404.00
2022-11-30T12:39:14.828Z,2348.00
2022-11-30T12:40:14.831Z,2296.00
2022-11-30T12:41:14.904Z,2196.00
2022-11-30T12:42:47.442Z,2096.00
2022-11-30T12:43:14.781Z,1984.00
2022-11-30T12:44:14.865Z,1900.00
2022-11-30T12:45:14.764Z,1840.00
2022-11-30T12:46:14.819Z,1792.00
2022-11-30T12:47:14.801Z,1724.00
2022-11-30T12:48:14.726Z,1648.00
2022-11-30T12:49:14.822Z,1572.00
2022-11-30T12:50:14.731Z,1520.00
2022-11-30T12:51:14.759Z,1488.00
2022-11-30T12:52:14.773Z,1496.00
2022-11-30T12:53:14.708Z,1520.00
2022-11-30T12:54:14.730Z,1520.00
2022-11-30T12:55:14.747Z,1500.00
2022-11-30T12:56:14.714Z,1444.00
2022-11-30T12:57:14.667Z,1392.00
2022-11-30T12:58:14.715Z,1372.00
2022-11-30T12:59:14.692Z,1344.00
2022-11-30T13:00:14.678Z,1336.00
2022-11-30T13:01:14.748Z,1340.00
2022-11-30T13:02:14.718Z,1344.00